createdAt,value
2023-01-10T00:00:06.117Z,12.32
2023-01-10T00:02:07.891Z,12.34
2023-01-10T00:04:10.215Z,12.28
2023-01-10T00:06:12.081Z,12.28
2023-01-10T00:08:17.735Z,12.25
2023-01-10T00:10:19.756Z,12.28
2023-01-10T00:12:40.342Z,12.19
2023-01-10T00:14:42.282Z,12.29
2023-01-10T00:16:44.232Z,12.23
2023-01-10T00:18:46.039Z,12.16
2023-01-10T00:20:49.619Z,12.15
2023-01-10T00:22:51.692Z,12.09
2023-01-10T00:24:53.625Z,12.10
2023-01-10T00:26:55.546Z,12.08
2023-01-10T00:28:57.313Z,12.08
2023-01-10T00:31:06.619Z,12.11
2023-01-10T00:33:09.461Z,12.08
2023-01-10T00:35:12.616Z,12.07
2023-01-10T00:37:14.889Z,12.09
2023-01-10T00:39:19.936Z,12.08
2023-01-10T00:41:40.293Z,12.10
2023-01-10T00:43:57.340Z,12.15
2023-01-10T00:45:59.699Z,12.13
2023-01-10T00:48:01.434Z,12.16
2023-01-10T00:50:06.120Z,12.17
2023-01-10T00:52:08.027Z,12.17
2023-01-10T00:54:10.946Z,12.19
2023-01-10T00:56:12.805Z,12.24
2023-01-10T00:58:15.780Z,12.15
2023-01-10T01:00:17.716Z,12.12
2023-01-10T01:02:19.926Z,12.13
2023-01-10T01:04:22.397Z,12.13
2023-01-10T01:06:24.317Z,12.14
2023-01-10T01:08:26.249Z,12.13
2023-01-10T01:10:28.250Z,12.14
2023-01-10T01:12:30.293Z,12.16
2023-01-10T01:14:32.124Z,12.17
2023-01-10T01:16:34.166Z,12.17
2023-01-10T01:18:36.134Z,12.20
2023-01-10T01:20:40.144Z,12.14
2023-01-10T01:22:42.210Z,12.12
2023-01-10T01:24:44.242Z,12.14
2023-01-10T01:26:46.111Z,12.12
2023-01-10T01:28:47.904Z,12.10
2023-01-10T01:30:50.276Z,12.09
2023-01-10T01:32:52.148Z,12.13
2023-01-10T01:34:54.098Z,12.12
2023-01-10T01:36:57.826Z,12.08
2023-01-10T01:38:59.909Z,12.04
2023-01-10T01:41:01.773Z,12.03
2023-01-10T01:43:03.566Z,12.03
2023-01-10T01:45:08.418Z,12.03
2023-01-10T01:47:25.140Z,11.95
2023-01-10T01:49:27.250Z,11.97
2023-01-10T01:51:31.319Z,11.96
2023-01-10T01:53:39.250Z,12.04
2023-01-10T01:55:43.421Z,12.11
2023-01-10T01:57:48.025Z,12.08
2023-01-10T01:59:52.558Z,12.05
2023-01-10T02:02:00.828Z,12.09
2023-01-10T02:04:35.338Z,12.04
2023-01-10T02:06:37.453Z,12.04
2023-01-10T02:08:45.581Z,11.99
2023-01-10T02:10:55.504Z,12.02
2023-01-10T02:13:02.844Z,12.03
2023-01-10T02:15:05.286Z,12.08
2023-01-10T02:17:10.530Z,12.07
2023-01-10T02:19:23.317Z,12.03
2023-01-10T02:21:44.189Z,12.03
2023-01-10T02:23:54.789Z,12.12
2023-01-10T02:26:24.987Z,12.12
2023-01-10T02:28:45.429Z,12.11
2023-01-10T02:31:09.255Z,12.02
2023-01-10T02:33:22.802Z,12.09
2023-01-10T02:35:44.510Z,12.04
2023-01-10T02:38:01.268Z,11.96
2023-01-10T02:40:21.502Z,12.04
2023-01-10T02:42:33.717Z,12.06
2023-01-10T02:44:35.613Z,12.10
2023-01-10T02:46:39.502Z,12.02
2023-01-10T02:48:41.541Z,12.05
2023-01-10T02:50:50.986Z,12.03
2023-01-10T02:52:52.997Z,12.04
2023-01-10T02:55:00.052Z,12.11
2023-01-10T02:57:17.938Z,12.11
2023-01-10T02:59:49.883Z,12.03
2023-01-10T03:02:21.108Z,11.98
2023-01-10T03:04:52.189Z,11.97
2023-01-10T03:06:54.031Z,12.01
2023-01-10T03:09:32.967Z,11.93
2023-01-10T03:11:42.490Z,12.01
2023-01-10T03:13:53.238Z,12.00
2023-01-10T03:15:58.446Z,11.97
2023-01-10T03:18:03.996Z,11.92
2023-01-10T03:20:07.255Z,11.94
2023-01-10T03:22:11.221Z,11.92
2023-01-10T03:24:19.206Z,11.87
2023-01-10T03:26:31.002Z,11.92
2023-01-10T03:28:45.922Z,11.84
2023-01-10T03:31:26.336Z,11.86
2023-01-10T03:33:31.076Z,11.91
2023-01-10T03:35:43.651Z,11.86
2023-01-10T03:38:04.709Z,11.94
2023-01-10T03:40:15.179Z,11.95
2023-01-10T03:42:55.878Z,11.86
2023-01-10T03:45:08.199Z,11.92
2023-01-10T03:47:30.703Z,11.95
2023-01-10T03:49:35.800Z,11.93
2023-01-10T03:51:39.248Z,11.92
2023-01-10T03:53:41.387Z,11.96
2023-01-10T03:55:44.850Z,11.89
2023-01-10T03:57:47.433Z,11.91
2023-01-10T03:59:52.673Z,11.88
2023-01-10T04:01:55.329Z,11.87
2023-01-10T04:03:57.245Z,11.87
2023-01-10T04:05:59.164Z,11.89
2023-01-10T04:08:01.312Z,11.90
2023-01-10T04:10:06.759Z,11.87
2023-01-10T04:12:08.571Z,11.88
2023-01-10T04:14:10.557Z,11.93
2023-01-10T04:16:12.346Z,11.95
2023-01-10T04:18:15.939Z,12.03
2023-01-10T04:20:17.862Z,12.03
2023-01-10T04:22:19.708Z,11.99
2023-01-10T04:24:22.109Z,12.02
2023-01-10T04:26:24.060Z,12.07
2023-01-10T04:28:25.896Z,11.99
2023-01-10T04:30:27.853Z,12.03
2023-01-10T04:32:29.659Z,12.06
2023-01-10T04:34:31.839Z,12.02
2023-01-10T04:36:33.813Z,11.99
2023-01-10T04:38:35.788Z,12.02
2023-01-10T04:40:37.650Z,12.01
2023-01-10T04:42:39.525Z,12.00
2023-01-10T04:44:41.622Z,11.95
2023-01-10T04:46:43.467Z,11.98
2023-01-10T04:48:45.277Z,11.96
2023-01-10T04:50:54.252Z,11.98
2023-01-10T04:52:56.144Z,11.98
2023-01-10T04:54:57.985Z,11.97
2023-01-10T04:56:59.993Z,11.95
2023-01-10T04:59:02.357Z,11.97
2023-01-10T05:01:12.289Z,11.90
2023-01-10T05:03:14.487Z,11.93
2023-01-10T05:05:16.465Z,11.92
2023-01-10T05:07:20.735Z,11.89
2023-01-10T05:09:22.667Z,11.88
2023-01-10T05:11:24.608Z,11.95
2023-01-10T05:13:26.540Z,11.91
2023-01-10T05:15:28.446Z,11.85
2023-01-10T05:17:30.263Z,11.87
2023-01-10T05:19:32.333Z,11.80
2023-01-10T05:21:34.232Z,11.82
2023-01-10T05:23:36.781Z,11.82
2023-01-10T05:25:38.524Z,11.81
2023-01-10T05:27:43.782Z,11.80
2023-01-10T05:29:45.751Z,11.82
2023-01-10T05:31:47.617Z,11.81
2023-01-10T05:33:51.781Z,11.87
2023-01-10T05:35:53.688Z,11.87
2023-01-10T05:37:55.437Z,11.89
2023-01-10T05:39:57.192Z,11.85
2023-01-10T05:41:58.998Z,11.86
2023-01-10T05:44:00.796Z,11.81
2023-01-10T05:46:02.921Z,11.82
2023-01-10T05:48:04.991Z,11.86
2023-01-10T05:50:07.279Z,11.81
2023-01-10T05:52:09.141Z,11.83
2023-01-10T05:54:10.926Z,11.71
2023-01-10T05:56:12.864Z,11.73
2023-01-10T05:58:14.972Z,11.75
2023-01-10T06:00:17.710Z,11.77
2023-01-10T06:02:19.714Z,11.73
2023-01-10T06:04:21.638Z,11.74
2023-01-10T06:06:23.443Z,11.74
2023-01-10T06:08:25.494Z,11.77
2023-01-10T06:10:27.380Z,11.75
2023-01-10T06:12:29.349Z,11.73
2023-01-10T06:14:31.260Z,11.76
2023-01-10T06:16:33.089Z,11.67
2023-01-10T06:18:35.036Z,11.73
2023-01-10T06:20:36.838Z,11.76
2023-01-10T06:22:43.079Z,11.74
2023-01-10T06:24:44.823Z,11.74
2023-01-10T06:26:46.770Z,11.74
2023-01-10T06:28:48.690Z,11.78
2023-01-10T06:30:50.606Z,11.81
2023-01-10T06:32:52.898Z,11.82
2023-01-10T06:34:56.254Z,11.80
2023-01-10T06:36:58.589Z,11.80
2023-01-10T06:39:00.705Z,11.78
2023-01-10T06:41:13.333Z,11.82
2023-01-10T06:43:15.339Z,11.80
2023-01-10T06:45:17.475Z,11.78
2023-01-10T06:47:22.332Z,11.77
2023-01-10T06:49:24.305Z,11.83
2023-01-10T06:51:26.076Z,11.81
2023-01-10T06:53:27.992Z,11.83
2023-01-10T06:55:31.605Z,11.80
2023-01-10T06:57:38.270Z,11.75
2023-01-10T06:59:40.195Z,11.71
2023-01-10T07:01:42.257Z,11.71
2023-01-10T07:03:44.465Z,11.71
2023-01-10T07:05:46.572Z,11.68
2023-01-10T07:07:48.471Z,11.67
2023-01-10T07:09:50.995Z,11.66
2023-01-10T07:11:53.138Z,11.64
2023-01-10T07:13:55.325Z,11.64
2023-01-10T07:16:15.633Z,11.61
2023-01-10T07:18:19.752Z,11.64
2023-01-10T07:20:21.684Z,11.57
2023-01-10T07:22:26.785Z,11.59
2023-01-10T07:24:28.800Z,11.63
2023-01-10T07:26:30.715Z,11.71
2023-01-10T07:28:34.745Z,11.73
2023-01-10T07:30:37.810Z,11.75
2023-01-10T07:32:39.668Z,11.74
2023-01-10T07:34:41.442Z,11.72
2023-01-10T07:36:43.620Z,11.77
2023-01-10T07:38:45.562Z,11.78
2023-01-10T07:40:47.560Z,11.82
2023-01-10T07:42:50.215Z,11.85
2023-01-10T07:44:52.067Z,11.88
2023-01-10T07:46:53.984Z,11.88
2023-01-10T07:48:56.000Z,11.88
2023-01-10T07:50:59.486Z,11.88
2023-01-10T07:53:03.322Z,11.88
2023-01-10T07:55:10.356Z,11.76
2023-01-10T07:57:12.208Z,11.78
2023-01-10T07:59:14.323Z,11.78
2023-01-10T08:01:16.487Z,11.79
2023-01-10T08:03:18.825Z,11.84
2023-01-10T08:05:21.521Z,11.82
2023-01-10T08:07:23.615Z,11.85
2023-01-10T08:09:25.526Z,11.83
2023-01-10T08:11:27.475Z,11.79
2023-01-10T08:13:30.284Z,11.73
2023-01-10T08:15:32.723Z,11.81
2023-01-10T08:17:35.260Z,11.81
2023-01-10T08:19:37.186Z,11.81
2023-01-10T08:21:39.301Z,11.80
2023-01-10T08:23:41.199Z,11.85
2023-01-10T08:25:43.581Z,11.83
2023-01-10T08:27:45.525Z,11.81
2023-01-10T08:29:47.435Z,11.76
2023-01-10T08:31:49.333Z,11.78
2023-01-10T08:33:51.269Z,11.73
2023-01-10T08:35:53.386Z,11.75
2023-01-10T08:38:00.113Z,11.75
2023-01-10T08:40:02.524Z,11.76
2023-01-10T08:42:04.531Z,11.81
2023-01-10T08:44:06.347Z,11.85
2023-01-10T08:46:08.429Z,11.80
2023-01-10T08:48:10.697Z,11.77
2023-01-10T08:50:12.678Z,11.77
2023-01-10T08:52:14.621Z,11.77
2023-01-10T08:54:16.666Z,11.81
2023-01-10T08:56:18.568Z,11.81
2023-01-10T08:58:20.646Z,11.78
2023-01-10T09:00:23.274Z,11.73
2023-01-10T09:02:25.257Z,11.62
2023-01-10T09:04:29.893Z,11.72
2023-01-10T09:06:32.851Z,11.70
2023-01-10T09:08:35.945Z,11.71
2023-01-10T09:10:38.104Z,11.81
2023-01-10T09:12:54.996Z,11.67
2023-01-10T09:14:57.073Z,11.70
2023-01-10T09:16:59.341Z,11.72
2023-01-10T09:19:01.301Z,11.77
2023-01-10T09:21:03.636Z,11.74
2023-01-10T09:23:09.646Z,11.76
2023-01-10T09:25:11.709Z,11.74
2023-01-10T09:27:14.066Z,11.75
2023-01-10T09:29:15.921Z,11.77
2023-01-10T09:31:17.780Z,11.76
2023-01-10T09:33:20.563Z,11.70
2023-01-10T09:35:23.479Z,11.69
2023-01-10T09:37:25.513Z,11.66
2023-01-10T09:39:29.528Z,11.72
2023-01-10T09:41:34.548Z,11.71
2023-01-10T09:44:05.499Z,11.70
2023-01-10T09:46:23.923Z,11.60
2023-01-10T09:48:36.776Z,11.69
2023-01-10T09:50:49.265Z,11.81
2023-01-10T09:52:57.583Z,11.79
2023-01-10T09:55:04.763Z,11.81
2023-01-10T09:57:06.917Z,11.86
2023-01-10T09:59:21.444Z,11.84
2023-01-10T10:01:29.448Z,11.75
2023-01-10T10:03:41.542Z,11.70
2023-01-10T10:05:43.762Z,11.74
2023-01-10T10:07:47.364Z,11.77
2023-01-10T10:09:49.538Z,11.76
2023-01-10T10:12:35.092Z,11.80
2023-01-10T10:14:47.400Z,11.82
2023-01-10T10:17:27.732Z,11.80
2023-01-10T10:20:07.051Z,11.76
2023-01-10T10:22:38.984Z,11.72
2023-01-10T10:25:02.380Z,11.76
2023-01-10T10:27:19.445Z,11.83
2023-01-10T10:29:42.784Z,11.79
2023-01-10T10:31:51.672Z,11.78
2023-01-10T10:34:18.357Z,11.76
2023-01-10T10:36:31.227Z,11.83
2023-01-10T10:38:39.218Z,11.86
2023-01-10T10:40:44.535Z,11.86
2023-01-10T10:42:52.848Z,11.83
2023-01-10T10:45:05.117Z,11.87
2023-01-10T10:47:30.119Z,11.81
2023-01-10T10:50:05.829Z,11.82
2023-01-10T10:52:19.936Z,11.90
2023-01-10T10:54:23.222Z,11.88
2023-01-10T10:56:27.684Z,11.87
2023-01-10T10:58:32.166Z,11.88
2023-01-10T11:00:34.131Z,11.91
2023-01-10T11:02:43.722Z,11.93
2023-01-10T11:04:45.905Z,11.94
2023-01-10T11:06:51.226Z,11.93
2023-01-10T11:08:57.536Z,11.98
2023-01-10T11:11:04.103Z,11.96
2023-01-10T11:13:12.767Z,11.98
2023-01-10T11:15:48.687Z,11.94
2023-01-10T11:18:10.500Z,11.93
2023-01-10T11:20:17.685Z,11.96
2023-01-10T11:22:20.443Z,12.03
2023-01-10T11:24:31.558Z,12.01
2023-01-10T11:26:40.738Z,12.00
2023-01-10T11:28:45.869Z,12.06
2023-01-10T11:30:50.911Z,12.04
2023-01-10T11:32:57.167Z,12.04
2023-01-10T11:35:02.685Z,12.07
2023-01-10T11:37:29.287Z,11.81
2023-01-10T11:39:32.758Z,12.01
2023-01-10T11:41:34.947Z,11.95
2023-01-10T11:43:39.559Z,11.94
2023-01-10T11:45:43.079Z,12.01
2023-01-10T11:48:06.103Z,11.99
2023-01-10T11:50:12.125Z,11.88
2023-01-10T11:52:27.508Z,11.93
2023-01-10T11:54:30.512Z,12.03
2023-01-10T11:56:35.391Z,12.06
2023-01-10T11:58:38.679Z,12.08
2023-01-10T12:00:48.763Z,12.02
2023-01-10T12:02:52.750Z,12.06
2023-01-10T12:04:57.319Z,12.06
2023-01-10T12:07:04.588Z,12.05
2023-01-10T12:09:33.489Z,12.03
2023-01-10T12:11:36.046Z,12.02
2023-01-10T12:13:50.269Z,11.96
2023-01-10T12:15:52.209Z,12.05
2023-01-10T12:17:58.108Z,12.02
2023-01-10T12:20:02.341Z,12.03
2023-01-10T12:22:07.515Z,12.06
2023-01-10T12:24:16.111Z,11.97
2023-01-10T12:26:19.001Z,11.98
2023-01-10T12:28:30.094Z,11.97
2023-01-10T12:30:36.182Z,12.01
2023-01-10T12:32:55.807Z,11.94
2023-01-10T12:35:07.823Z,11.94
2023-01-10T12:37:18.176Z,11.96
2023-01-10T12:39:23.797Z,11.93
2023-01-10T12:42:05.980Z,11.87
2023-01-10T12:44:18.526Z,11.88
2023-01-10T12:47:04.226Z,11.87
2023-01-10T12:49:18.679Z,11.82
2023-01-10T12:51:24.148Z,11.87
2023-01-10T12:53:36.440Z,11.86
2023-01-10T12:55:41.555Z,11.86
2023-01-10T12:57:51.612Z,11.91
2023-01-10T12:59:55.590Z,11.89
2023-01-10T13:02:02.285Z,11.91
2023-01-10T13:04:09.617Z,11.87
2023-01-10T13:06:25.073Z,11.87
2023-01-10T13:08:30.686Z,11.92
2023-01-10T13:10:35.641Z,11.90
2023-01-10T13:12:42.321Z,11.88
2023-01-10T13:15:02.272Z,11.86
2023-01-10T13:17:27.292Z,11.85
2023-01-10T13:19:29.446Z,11.92
2023-01-10T13:21:33.726Z,11.81
2023-01-10T13:23:59.949Z,11.83
2023-01-10T13:26:09.361Z,11.83
2023-01-10T13:28:22.979Z,11.76
2023-01-10T13:30:30.949Z,11.76
2023-01-10T13:32:35.701Z,11.81
2023-01-10T13:34:37.921Z,11.83
2023-01-10T13:37:09.948Z,11.78
2023-01-10T13:39:46.300Z,11.70
2023-01-10T13:42:16.064Z,11.72
2023-01-10T13:44:18.078Z,11.73
2023-01-10T13:46:20.063Z,11.77
2023-01-10T13:48:28.055Z,11.73
2023-01-10T13:50:42.185Z,11.71
2023-01-10T13:52:44.189Z,11.77
2023-01-10T13:55:02.863Z,11.67
2023-01-10T13:57:42.978Z,11.66
2023-01-10T14:00:20.677Z,11.69
2023-01-10T14:02:34.786Z,11.64
2023-01-10T14:04:47.370Z,11.60
2023-01-10T14:06:59.509Z,11.61
2023-01-10T14:09:07.178Z,11.71
2023-01-10T14:11:13.064Z,11.68
2023-01-10T14:13:21.254Z,11.67
2023-01-10T14:15:27.341Z,11.69
2023-01-10T14:17:37.531Z,11.62
2023-01-10T14:19:41.513Z,11.65
2023-01-10T14:21:45.608Z,11.63
2023-01-10T14:23:54.123Z,11.58
2023-01-10T14:25:57.789Z,11.61
2023-01-10T14:28:01.343Z,11.60
2023-01-10T14:30:06.675Z,11.62
2023-01-10T14:32:26.268Z,11.57
2023-01-10T14:34:31.337Z,11.59
2023-01-10T14:36:52.369Z,11.62
2023-01-10T14:39:01.200Z,11.60
2023-01-10T14:41:06.023Z,11.62
2023-01-10T14:43:15.828Z,11.59
2023-01-10T14:45:19.691Z,11.58
2023-01-10T14:47:40.025Z,11.58
2023-01-10T14:49:51.508Z,11.48
2023-01-10T14:52:00.947Z,11.55
2023-01-10T14:54:11.664Z,11.53
2023-01-10T14:56:40.555Z,11.48
2023-01-10T14:58:42.470Z,11.52
2023-01-10T15:00:47.090Z,11.57
2023-01-10T15:02:49.851Z,11.57
2023-01-10T15:04:59.957Z,11.53
2023-01-10T15:07:12.569Z,11.48
2023-01-10T15:09:14.943Z,11.53
2023-01-10T15:11:17.975Z,11.51
2023-01-10T15:13:24.028Z,11.51
2023-01-10T15:15:38.357Z,11.40
2023-01-10T15:17:42.310Z,11.50
2023-01-10T15:19:45.321Z,11.46
2023-01-10T15:21:47.959Z,11.44
2023-01-10T15:23:50.480Z,11.45
2023-01-10T15:25:59.505Z,11.40
2023-01-10T15:28:03.024Z,11.41
2023-01-10T15:30:09.309Z,11.30
2023-01-10T15:32:24.536Z,11.36
2023-01-10T15:34:30.597Z,11.34
2023-01-10T15:36:32.882Z,11.36
2023-01-10T15:38:38.273Z,11.33
2023-01-10T15:40:41.928Z,11.27
2023-01-10T15:42:44.077Z,11.29
2023-01-10T15:44:52.762Z,11.31
2023-01-10T15:46:57.062Z,11.29
2023-01-10T15:49:02.999Z,11.27
2023-01-10T15:51:34.514Z,11.22
2023-01-10T15:54:04.042Z,11.24
2023-01-10T15:56:16.291Z,11.18
2023-01-10T15:58:30.251Z,11.15
2023-01-10T16:00:32.348Z,11.22
2023-01-10T16:02:34.700Z,11.22
2023-01-10T16:04:37.620Z,11.22
2023-01-10T16:06:39.837Z,11.27
2023-01-10T16:08:48.157Z,11.27
2023-01-10T16:10:55.998Z,11.19
2023-01-10T16:13:28.754Z,11.13
2023-01-10T16:15:36.594Z,11.14
2023-01-10T16:17:38.703Z,11.19
2023-01-10T16:19:40.882Z,11.21
2023-01-10T16:21:48.698Z,11.20
2023-01-10T16:23:50.804Z,11.21
2023-01-10T16:25:55.221Z,11.16
2023-01-10T16:27:57.708Z,11.22
2023-01-10T16:29:59.511Z,11.25
2023-01-10T16:32:01.615Z,11.21
2023-01-10T16:34:03.646Z,11.21
2023-01-10T16:36:14.678Z,11.15
2023-01-10T16:38:17.978Z,11.21
2023-01-10T16:40:25.640Z,11.19
2023-01-10T16:42:46.164Z,11.19
2023-01-10T16:44:48.290Z,11.17
2023-01-10T16:46:50.693Z,11.19
2023-01-10T16:48:53.440Z,11.16
2023-01-10T16:50:55.869Z,11.19
2023-01-10T16:52:59.028Z,11.19
2023-01-10T16:55:02.074Z,11.19
2023-01-10T16:57:04.107Z,11.22
2023-01-10T16:59:06.598Z,11.16
2023-01-10T17:01:24.482Z,11.13
2023-01-10T17:03:27.027Z,11.17
2023-01-10T17:05:28.987Z,11.14
2023-01-10T17:07:30.932Z,11.14
2023-01-10T17:09:33.037Z,11.16
2023-01-10T17:11:40.785Z,11.09
2023-01-10T17:13:44.658Z,11.14
2023-01-10T17:15:46.716Z,11.14
2023-01-10T17:17:48.812Z,11.09
2023-01-10T17:19:50.720Z,11.03
2023-01-10T17:21:53.204Z,11.01
2023-01-10T17:23:55.393Z,11.02
2023-01-10T17:26:02.493Z,10.97
2023-01-10T17:28:04.677Z,11.05
2023-01-10T17:30:07.242Z,11.13
2023-01-10T17:32:09.378Z,11.05
2023-01-10T17:34:11.424Z,11.04
2023-01-10T17:36:13.429Z,11.05
2023-01-10T17:38:17.007Z,11.03
2023-01-10T17:40:19.128Z,10.99
2023-01-10T17:42:22.914Z,10.99
2023-01-10T17:44:25.093Z,10.96
2023-01-10T17:46:27.213Z,11.01
2023-01-10T17:48:29.378Z,10.96
2023-01-10T17:50:31.444Z,10.95
2023-01-10T17:52:33.382Z,10.92
2023-01-10T17:54:36.448Z,10.90
2023-01-10T17:56:38.738Z,10.90
2023-01-10T17:58:40.734Z,10.94
2023-01-10T18:00:42.898Z,10.98
2023-01-10T18:02:45.002Z,10.92
2023-01-10T18:04:47.183Z,10.91
2023-01-10T18:06:52.351Z,10.89
2023-01-10T18:08:54.694Z,10.86
2023-01-10T18:11:00.827Z,10.79
2023-01-10T18:13:05.414Z,10.82
2023-01-10T18:15:08.189Z,10.79
2023-01-10T18:17:12.232Z,10.80
2023-01-10T18:19:14.320Z,10.82
2023-01-10T18:21:19.167Z,10.74
2023-01-10T18:23:21.713Z,10.68
2023-01-10T18:25:24.781Z,10.68
2023-01-10T18:27:27.370Z,10.62
2023-01-10T18:29:29.438Z,10.65
2023-01-10T18:31:31.337Z,10.62
2023-01-10T18:33:34.052Z,10.51
2023-01-10T18:35:36.031Z,10.35
2023-01-10T18:37:38.289Z,10.35
2023-01-10T18:39:40.606Z,10.36
2023-01-10T18:41:42.789Z,10.29
2023-01-10T18:43:45.468Z,10.29
2023-01-10T18:45:48.135Z,10.25
2023-01-10T18:47:52.140Z,10.24
2023-01-10T18:49:54.334Z,10.30
2023-01-10T18:51:56.576Z,10.28
2023-01-10T18:53:58.958Z,10.29
2023-01-10T18:56:04.751Z,10.09
2023-01-10T18:58:06.903Z,10.10
2023-01-10T19:00:09.964Z,10.16
2023-01-10T19:02:14.289Z,10.14
2023-01-10T19:04:17.593Z,10.08
2023-01-10T19:06:22.719Z,10.06
2023-01-10T19:08:24.679Z,10.03
2023-01-10T19:10:26.665Z,10.06
2023-01-10T19:12:28.891Z,10.07
2023-01-10T19:14:31.059Z,10.02
2023-01-10T19:16:33.419Z,9.99
2023-01-10T19:18:35.650Z,9.94
2023-01-10T19:20:37.674Z,9.89
2023-01-10T19:22:39.788Z,9.90
2023-01-10T19:24:41.827Z,9.89
2023-01-10T19:26:43.706Z,9.91
2023-01-10T19:28:46.043Z,9.94
2023-01-10T19:31:03.470Z,9.94
2023-01-10T19:33:06.053Z,9.93
2023-01-10T19:35:08.765Z,9.88
2023-01-10T19:37:10.872Z,9.90
2023-01-10T19:39:13.042Z,9.90
2023-01-10T19:41:16.164Z,9.97
2023-01-10T19:43:18.592Z,10.02
2023-01-10T19:45:20.649Z,10.03
2023-01-10T19:47:22.688Z,10.02
2023-01-10T19:49:24.772Z,10.03
2023-01-10T19:51:26.882Z,9.96
2023-01-10T19:53:28.825Z,9.95
2023-01-10T19:55:32.584Z,9.93
2023-01-10T19:57:34.563Z,9.93
2023-01-10T19:59:36.672Z,9.90
2023-01-10T20:01:39.128Z,9.90
2023-01-10T20:03:44.940Z,9.86
2023-01-10T20:05:49.825Z,9.78
2023-01-10T20:07:52.738Z,9.79
2023-01-10T20:09:58.378Z,9.75
2023-01-10T20:12:00.766Z,9.75
2023-01-10T20:14:03.057Z,9.73
2023-01-10T20:16:06.765Z,9.68
2023-01-10T20:18:08.989Z,9.65
2023-01-10T20:20:12.247Z,9.64
2023-01-10T20:22:14.622Z,9.61
2023-01-10T20:24:19.618Z,9.59
2023-01-10T20:26:26.053Z,9.63
2023-01-10T20:28:29.605Z,9.70
2023-01-10T20:30:31.751Z,9.73
2023-01-10T20:32:33.995Z,9.78
2023-01-10T20:34:36.104Z,9.72
2023-01-10T20:36:38.243Z,9.69
2023-01-10T20:38:40.881Z,9.60
2023-01-10T20:40:42.915Z,9.60
2023-01-10T20:42:52.655Z,9.52
2023-01-10T20:44:58.048Z,9.46
2023-01-10T20:47:00.522Z,9.49
2023-01-10T20:49:03.480Z,9.48
2023-01-10T20:51:06.699Z,9.48
2023-01-10T20:53:08.841Z,9.52
2023-01-10T20:55:11.387Z,9.59
2023-01-10T20:57:13.386Z,9.58
2023-01-10T20:59:15.656Z,9.59
2023-01-10T21:01:33.165Z,9.65
2023-01-10T21:03:36.352Z,9.64
2023-01-10T21:05:40.739Z,9.60
2023-01-10T21:07:42.798Z,9.61
2023-01-10T21:09:44.921Z,9.52
2023-01-10T21:12:00.045Z,9.51
2023-01-10T21:14:06.439Z,9.41
2023-01-10T21:16:11.966Z,9.49
2023-01-10T21:18:16.290Z,9.51
2023-01-10T21:20:18.463Z,9.54
2023-01-10T21:22:23.457Z,9.47
2023-01-10T21:24:25.901Z,9.42
2023-01-10T21:26:28.247Z,9.44
2023-01-10T21:28:38.705Z,9.38
2023-01-10T21:30:41.493Z,9.35
2023-01-10T21:32:43.615Z,9.33
2023-01-10T21:34:45.548Z,9.36
2023-01-10T21:36:47.497Z,9.31
2023-01-10T21:38:49.763Z,9.31
2023-01-10T21:40:52.037Z,9.35
2023-01-10T21:42:54.566Z,9.40
2023-01-10T21:44:56.803Z,9.36
2023-01-10T21:46:58.911Z,9.40
2023-01-10T21:49:04.912Z,9.35
2023-01-10T21:51:06.980Z,9.40
2023-01-10T21:53:09.385Z,9.39
2023-01-10T21:55:14.530Z,9.29
2023-01-10T21:59:48.073Z,9.31
2023-01-10T22:01:50.076Z,9.32
2023-01-10T22:03:52.924Z,9.36
2023-01-10T22:05:55.241Z,9.33
2023-01-10T22:07:57.358Z,9.36
2023-01-10T22:09:59.508Z,9.40
2023-01-10T22:12:01.861Z,9.42
2023-01-10T22:14:03.986Z,9.43
2023-01-10T22:16:07.273Z,9.38
2023-01-10T22:18:09.481Z,9.35
2023-01-10T22:20:12.667Z,9.46
2023-01-10T22:22:15.169Z,9.49
2023-01-10T22:24:17.321Z,9.52
2023-01-10T22:26:19.468Z,9.58
2023-01-10T22:28:21.539Z,9.51
2023-01-10T22:30:23.563Z,9.51
2023-01-10T22:32:25.618Z,9.52
2023-01-10T22:34:27.856Z,9.55
2023-01-10T22:36:30.031Z,9.57
2023-01-10T22:38:35.334Z,9.56
2023-01-10T22:40:38.558Z,9.55
2023-01-10T22:42:40.693Z,9.50
2023-01-10T22:44:42.873Z,9.50
2023-01-10T22:46:48.509Z,9.45
2023-01-10T22:48:50.758Z,9.50
2023-01-10T22:50:52.843Z,9.45
2023-01-10T22:52:54.663Z,9.40
2023-01-10T22:54:58.971Z,9.35
2023-01-10T22:57:01.421Z,9.33
2023-01-10T22:59:03.939Z,9.30
2023-01-10T23:01:07.638Z,9.33
2023-01-10T23:03:09.864Z,9.33
2023-01-10T23:05:11.941Z,9.34
2023-01-10T23:07:14.071Z,9.35
2023-01-10T23:09:16.485Z,9.35
2023-01-10T23:11:20.769Z,9.37
2023-01-10T23:13:24.234Z,9.38
2023-01-10T23:15:26.498Z,9.41
2023-01-10T23:17:28.547Z,9.44
2023-01-10T23:19:30.532Z,9.40
2023-01-10T23:21:32.775Z,9.46
2023-01-10T23:23:36.616Z,9.49
2023-01-10T23:25:38.621Z,9.47
2023-01-10T23:27:40.696Z,9.45
2023-01-10T23:29:42.826Z,9.47
2023-01-10T23:31:49.725Z,9.37
2023-01-10T23:33:54.738Z,9.43
2023-01-10T23:35:57.128Z,9.41
2023-01-10T23:37:59.186Z,9.44
2023-01-10T23:40:03.951Z,9.50
2023-01-10T23:42:06.133Z,9.47
2023-01-10T23:44:08.589Z,9.50
2023-01-10T23:46:10.655Z,9.51
2023-01-10T23:48:13.054Z,9.56
2023-01-10T23:50:17.621Z,9.50
2023-01-10T23:52:19.826Z,9.48
2023-01-10T23:54:22.073Z,9.48
2023-01-10T23:56:26.888Z,9.56
2023-01-10T23:58:28.870Z,9.52
